sensor_id;sensor_type;location;lat;lon;timestamp;P1;durP1;ratioP1;P2;durP2;ratioP2
19374;SDS011;9823;50.936;4.046;2023-04-24T00:01:32;23.03;;;14.77;;
19374;SDS011;9823;50.936;4.046;2023-04-24T00:04:01;29.97;;;14.53;;
19374;SDS011;9823;50.936;4.046;2023-04-24T00:06:29;21.93;;;13.23;;
19374;SDS011;9823;50.936;4.046;2023-04-24T00:09:01;25.30;;;14.00;;
19374;SDS011;9823;50.936;4.046;2023-04-24T00:11:32;22.50;;;13.40;;
19374;SDS011;9823;50.936;4.046;2023-04-24T00:13:58;24.63;;;13.50;;
19374;SDS011;9823;50.936;4.046;2023-04-24T00:16:24;27.03;;;13.93;;
19374;SDS011;9823;50.936;4.046;2023-04-24T00:18:50;23.23;;;13.63;;
19374;SDS011;9823;50.936;4.046;2023-04-24T00:21:21;21.93;;;13.47;;
19374;SDS011;9823;50.936;4.046;2023-04-24T00:23:50;26.43;;;13.20;;
19374;SDS011;9823;50.936;4.046;2023-04-24T00:26:16;32.63;;;14.40;;
19374;SDS011;9823;50.936;4.046;2023-04-24T00:28:42;26.33;;;12.93;;
19374;SDS011;9823;50.936;4.046;2023-04-24T00:31:11;28.50;;;14.10;;
19374;SDS011;9823;50.936;4.046;2023-04-24T00:33:37;25.07;;;13.80;;
19374;SDS011;9823;50.936;4.046;2023-04-24T00:36:08;33.87;;;15.13;;
19374;SDS011;9823;50.936;4.046;2023-04-24T00:38:34;23.73;;;13.00;;
19374;SDS011;9823;50.936;4.046;2023-04-24T00:41:05;24.50;;;13.80;;
19374;SDS011;9823;50.936;4.046;2023-04-24T00:43:31;20.50;;;12.73;;
19374;SDS011;9823;50.936;4.046;2023-04-24T00:45:57;29.33;;;13.80;;
19374;SDS011;9823;50.936;4.046;2023-04-24T00:48:29;26.83;;;14.00;;
19374;SDS011;9823;50.936;4.046;2023-04-24T00:50:56;24.27;;;13.33;;
19374;SDS011;9823;50.936;4.046;2023-04-24T00:53:23;28.93;;;13.27;;
19374;SDS011;9823;50.936;4.046;2023-04-24T00:55:49;22.27;;;12.90;;
19374;SDS011;9823;50.936;4.046;2023-04-24T00:58:18;25.30;;;13.07;;
19374;SDS011;9823;50.936;4.046;2023-04-24T01:00:45;21.17;;;12.60;;
19374;SDS011;9823;50.936;4.046;2023-04-24T01:03:15;21.20;;;12.10;;
19374;SDS011;9823;50.936;4.046;2023-04-24T01:05:41;21.60;;;12.30;;
19374;SDS011;9823;50.936;4.046;2023-04-24T01:08:07;21.30;;;11.70;;
19374;SDS011;9823;50.936;4.046;2023-04-24T01:10:33;21.07;;;10.33;;
19374;SDS011;9823;50.936;4.046;2023-04-24T01:13:00;17.93;;;10.90;;
19374;SDS011;9823;50.936;4.046;2023-04-24T01:15:26;14.40;;;9.97;;
19374;SDS011;9823;50.936;4.046;2023-04-24T01:17:57;16.17;;;10.30;;
19374;SDS011;9823;50.936;4.046;2023-04-24T01:20:23;15.10;;;8.83;;
19374;SDS011;9823;50.936;4.046;2023-04-24T01:22:51;15.33;;;8.67;;
19374;SDS011;9823;50.936;4.046;2023-04-24T01:25:23;13.33;;;8.70;;
19374;SDS011;9823;50.936;4.046;2023-04-24T01:27:50;13.43;;;8.00;;
19374;SDS011;9823;50.936;4.046;2023-04-24T01:30:17;12.53;;;8.03;;
19374;SDS011;9823;50.936;4.046;2023-04-24T01:32:46;14.03;;;7.77;;
19374;SDS011;9823;50.936;4.046;2023-04-24T01:35:12;13.57;;;7.40;;
19374;SDS011;9823;50.936;4.046;2023-04-24T01:37:38;10.77;;;6.20;;
19374;SDS011;9823;50.936;4.046;2023-04-24T01:40:05;9.57;;;6.77;;
19374;SDS011;9823;50.936;4.046;2023-04-24T01:42:34;8.70;;;6.40;;
19374;SDS011;9823;50.936;4.046;2023-04-24T01:45:00;10.00;;;5.90;;
19374;SDS011;9823;50.936;4.046;2023-04-24T01:47:30;9.83;;;6.80;;
19374;SDS011;9823;50.936;4.046;2023-04-24T01:49:56;11.17;;;6.83;;
19374;SDS011;9823;50.936;4.046;2023-04-24T01:52:23;10.40;;;7.03;;
19374;SDS011;9823;50.936;4.046;2023-04-24T01:54:49;14.83;;;8.27;;
19374;SDS011;9823;50.936;4.046;2023-04-24T01:57:15;17.60;;;9.10;;
19374;SDS011;9823;50.936;4.046;2023-04-24T01:59:42;18.30;;;8.70;;
19374;SDS011;9823;50.936;4.046;2023-04-24T02:02:10;15.67;;;9.30;;
19374;SDS011;9823;50.936;4.046;2023-04-24T02:04:39;18.13;;;9.87;;
19374;SDS011;9823;50.936;4.046;2023-04-24T02:07:07;16.87;;;9.63;;
19374;SDS011;9823;50.936;4.046;2023-04-24T02:09:33;17.53;;;10.10;;
19374;SDS011;9823;50.936;4.046;2023-04-24T02:11:59;23.27;;;11.03;;
19374;SDS011;9823;50.936;4.046;2023-04-24T02:14:28;23.33;;;10.77;;
19374;SDS011;9823;50.936;4.046;2023-04-24T02:16:56;17.50;;;10.40;;
19374;SDS011;9823;50.936;4.046;2023-04-24T02:19:22;21.40;;;11.10;;
19374;SDS011;9823;50.936;4.046;2023-04-24T02:21:48;20.67;;;11.17;;
19374;SDS011;9823;50.936;4.046;2023-04-24T02:24:14;18.10;;;10.40;;
19374;SDS011;9823;50.936;4.046;2023-04-24T02:26:41;19.87;;;11.67;;
19374;SDS011;9823;50.936;4.046;2023-04-24T02:29:06;22.27;;;11.70;;
19374;SDS011;9823;50.936;4.046;2023-04-24T02:31:39;19.23;;;10.83;;
19374;SDS011;9823;50.936;4.046;2023-04-24T02:34:05;19.70;;;11.67;;
19374;SDS011;9823;50.936;4.046;2023-04-24T02:36:33;20.40;;;11.40;;
19374;SDS011;9823;50.936;4.046;2023-04-24T02:38:59;21.23;;;11.17;;
19374;SDS011;9823;50.936;4.046;2023-04-24T02:41:26;15.10;;;10.37;;
19374;SDS011;9823;50.936;4.046;2023-04-24T02:43:56;17.43;;;10.60;;
19374;SDS011;9823;50.936;4.046;2023-04-24T02:46:25;22.73;;;10.50;;
19374;SDS011;9823;50.936;4.046;2023-04-24T02:48:51;17.20;;;9.37;;
19374;SDS011;9823;50.936;4.046;2023-04-24T02:51:17;19.33;;;9.57;;
19374;SDS011;9823;50.936;4.046;2023-04-24T02:53:43;19.70;;;9.00;;
19374;SDS011;9823;50.936;4.046;2023-04-24T02:56:09;15.90;;;9.17;;
19374;SDS011;9823;50.936;4.046;2023-04-24T02:58:37;14.37;;;8.17;;
19374;SDS011;9823;50.936;4.046;2023-04-24T03:01:03;14.00;;;9.17;;
19374;SDS011;9823;50.936;4.046;2023-04-24T03:03:30;17.03;;;9.87;;
19374;SDS011;9823;50.936;4.046;2023-04-24T03:05:56;13.93;;;9.07;;
19374;SDS011;9823;50.936;4.046;2023-04-24T03:08:22;14.50;;;8.70;;
19374;SDS011;9823;50.936;4.046;2023-04-24T03:10:50;13.00;;;8.87;;
19374;SDS011;9823;50.936;4.046;2023-04-24T03:13:17;16.50;;;8.67;;
19374;SDS011;9823;50.936;4.046;2023-04-24T03:15:45;13.80;;;7.80;;
19374;SDS011;9823;50.936;4.046;2023-04-24T03:18:16;12.67;;;8.13;;
19374;SDS011;9823;50.936;4.046;2023-04-24T03:20:42;14.23;;;8.13;;
19374;SDS011;9823;50.936;4.046;2023-04-24T03:23:08;13.23;;;7.87;;
19374;SDS011;9823;50.936;4.046;2023-04-24T03:25:36;12.30;;;7.50;;
19374;SDS011;9823;50.936;4.046;2023-04-24T03:28:02;13.60;;;8.37;;
19374;SDS011;9823;50.936;4.046;2023-04-24T03:30:28;14.03;;;8.20;;
19374;SDS011;9823;50.936;4.046;2023-04-24T03:32:54;14.23;;;8.00;;
19374;SDS011;9823;50.936;4.046;2023-04-24T03:35:20;13.83;;;8.13;;
19374;SDS011;9823;50.936;4.046;2023-04-24T03:37:51;11.97;;;8.00;;
19374;SDS011;9823;50.936;4.046;2023-04-24T03:40:20;11.50;;;7.13;;
19374;SDS011;9823;50.936;4.046;2023-04-24T03:42:46;15.00;;;7.53;;
19374;SDS011;9823;50.936;4.046;2023-04-24T03:45:11;15.00;;;7.67;;
19374;SDS011;9823;50.936;4.046;2023-04-24T03:47:38;14.00;;;7.13;;
19374;SDS011;9823;50.936;4.046;2023-04-24T03:50:06;11.47;;;6.73;;
19374;SDS011;9823;50.936;4.046;2023-04-24T03:52:32;13.03;;;7.20;;
19374;SDS011;9823;50.936;4.046;2023-04-24T03:54:58;13.47;;;6.93;;
19374;SDS011;9823;50.936;4.046;2023-04-24T03:57:24;11.03;;;6.43;;
19374;SDS011;9823;50.936;4.046;2023-04-24T03:59:50;11.40;;;6.87;;
19374;SDS011;9823;50.936;4.046;2023-04-24T04:02:21;13.53;;;7.13;;
19374;SDS011;9823;50.936;4.046;2023-04-24T04:04:47;12.00;;;6.27;;
19374;SDS011;9823;50.936;4.046;2023-04-24T04:07:15;13.53;;;7.03;;
19374;SDS011;9823;50.936;4.046;2023-04-24T04:09:43;15.03;;;7.17;;
19374;SDS011;9823;50.936;4.046;2023-04-24T04:12:10;15.70;;;7.43;;
19374;SDS011;9823;50.936;4.046;2023-04-24T04:14:36;14.43;;;8.00;;
19374;SDS011;9823;50.936;4.046;2023-04-24T04:17:02;14.60;;;8.20;;
19374;SDS011;9823;50.936;4.046;2023-04-24T04:19:28;14.57;;;8.87;;
19374;SDS011;9823;50.936;4.046;2023-04-24T04:21:54;18.90;;;9.77;;
19374;SDS011;9823;50.936;4.046;2023-04-24T04:24:21;19.60;;;10.43;;
19374;SDS011;9823;50.936;4.046;2023-04-24T04:26:49;20.10;;;10.63;;
19374;SDS011;9823;50.936;4.046;2023-04-24T04:29:19;23.43;;;11.00;;
19374;SDS011;9823;50.936;4.046;2023-04-24T04:31:45;24.77;;;11.83;;
19374;SDS011;9823;50.936;4.046;2023-04-24T04:34:13;27.13;;;12.23;;
19374;SDS011;9823;50.936;4.046;2023-04-24T04:36:42;23.67;;;12.77;;
19374;SDS011;9823;50.936;4.046;2023-04-24T04:39:09;21.00;;;11.93;;
19374;SDS011;9823;50.936;4.046;2023-04-24T04:41:35;20.87;;;12.43;;
19374;SDS011;9823;50.936;4.046;2023-04-24T04:44:02;25.17;;;12.77;;
19374;SDS011;9823;50.936;4.046;2023-04-24T04:46:29;23.70;;;13.23;;
19374;SDS011;9823;50.936;4.046;2023-04-24T04:48:57;23.30;;;12.90;;
19374;SDS011;9823;50.936;4.046;2023-04-24T04:51:23;27.33;;;14.23;;
19374;SDS011;9823;50.936;4.046;2023-04-24T04:53:49;26.90;;;13.70;;
19374;SDS011;9823;50.936;4.046;2023-04-24T04:56:15;25.93;;;13.00;;
19374;SDS011;9823;50.936;4.046;2023-04-24T04:58:41;21.10;;;12.73;;
19374;SDS011;9823;50.936;4.046;2023-04-24T05:01:09;28.20;;;13.13;;
19374;SDS011;9823;50.936;4.046;2023-04-24T05:03:45;25.53;;;13.30;;
19374;SDS011;9823;50.936;4.046;2023-04-24T05:06:11;28.30;;;13.17;;
19374;SDS011;9823;50.936;4.046;2023-04-24T05:08:40;22.13;;;12.47;;
19374;SDS011;9823;50.936;4.046;2023-04-24T05:11:08;25.07;;;13.33;;
19374;SDS011;9823;50.936;4.046;2023-04-24T05:13:34;24.17;;;12.40;;
19374;SDS011;9823;50.936;4.046;2023-04-24T05:16:02;23.53;;;13.13;;
19374;SDS011;9823;50.936;4.046;2023-04-24T05:18:34;30.60;;;12.60;;
19374;SDS011;9823;50.936;4.046;2023-04-24T05:21:04;23.27;;;11.90;;
19374;SDS011;9823;50.936;4.046;2023-04-24T05:23:32;25.93;;;12.37;;
19374;SDS011;9823;50.936;4.046;2023-04-24T05:25:58;21.00;;;12.53;;
19374;SDS011;9823;50.936;4.046;2023-04-24T05:28:27;25.93;;;12.90;;
19374;SDS011;9823;50.936;4.046;2023-04-24T05:30:53;24.63;;;12.83;;
19374;SDS011;9823;50.936;4.046;2023-04-24T05:33:21;22.83;;;13.23;;
19374;SDS011;9823;50.936;4.046;2023-04-24T05:35:49;27.37;;;13.23;;
19374;SDS011;9823;50.936;4.046;2023-04-24T05:38:15;25.10;;;13.67;;
19374;SDS011;9823;50.936;4.046;2023-04-24T05:40:46;26.33;;;13.23;;
19374;SDS011;9823;50.936;4.046;2023-04-24T05:43:15;23.43;;;13.13;;
19374;SDS011;9823;50.936;4.046;2023-04-24T05:45:41;25.70;;;12.83;;
19374;SDS011;9823;50.936;4.046;2023-04-24T05:48:10;22.90;;;12.83;;
19374;SDS011;9823;50.936;4.046;2023-04-24T05:50:36;24.17;;;12.57;;
19374;SDS011;9823;50.936;4.046;2023-04-24T05:53:04;30.27;;;14.77;;
19374;SDS011;9823;50.936;4.046;2023-04-24T05:55:32;27.10;;;12.97;;
19374;SDS011;9823;50.936;4.046;2023-04-24T05:58:00;26.40;;;12.90;;
19374;SDS011;9823;50.936;4.046;2023-04-24T06:00:26;24.87;;;13.17;;
19374;SDS011;9823;50.936;4.046;2023-04-24T06:02:55;26.87;;;12.60;;
19374;SDS011;9823;50.936;4.046;2023-04-24T06:05:21;27.83;;;13.70;;
19374;SDS011;9823;50.936;4.046;2023-04-24T06:07:47;26.10;;;13.73;;
19374;SDS011;9823;50.936;4.046;2023-04-24T06:10:16;32.37;;;14.20;;
19374;SDS011;9823;50.936;4.046;2023-04-24T06:12:42;24.53;;;13.63;;
19374;SDS011;9823;50.936;4.046;2023-04-24T06:15:08;24.10;;;14.20;;
19374;SDS011;9823;50.936;4.046;2023-04-24T06:17:34;30.93;;;14.10;;
19374;SDS011;9823;50.936;4.046;2023-04-24T06:20:00;30.80;;;15.73;;
19374;SDS011;9823;50.936;4.046;2023-04-24T06:22:30;28.03;;;14.30;;
19374;SDS011;9823;50.936;4.046;2023-04-24T06:24:59;29.17;;;14.33;;
19374;SDS011;9823;50.936;4.046;2023-04-24T06:27:28;29.83;;;16.03;;
19374;SDS011;9823;50.936;4.046;2023-04-24T06:29:56;31.20;;;16.10;;
19374;SDS011;9823;50.936;4.046;2023-04-24T06:32:24;36.17;;;15.37;;
19374;SDS011;9823;50.936;4.046;2023-04-24T06:34:59;32.57;;;16.57;;
19374;SDS011;9823;50.936;4.046;2023-04-24T06:37:25;33.93;;;16.50;;
19374;SDS011;9823;50.936;4.046;2023-04-24T06:39:52;34.63;;;15.97;;
19374;SDS011;9823;50.936;4.046;2023-04-24T06:42:18;39.27;;;17.47;;
19374;SDS011;9823;50.936;4.046;2023-04-24T06:44:47;33.53;;;16.30;;
19374;SDS011;9823;50.936;4.046;2023-04-24T06:47:15;33.67;;;16.60;;
19374;SDS011;9823;50.936;4.046;2023-04-24T06:49:41;37.23;;;16.87;;
19374;SDS011;9823;50.936;4.046;2023-04-24T06:52:10;36.40;;;17.23;;
19374;SDS011;9823;50.936;4.046;2023-04-24T06:54:38;30.37;;;16.23;;
19374;SDS011;9823;50.936;4.046;2023-04-24T06:57:06;37.30;;;16.20;;
19374;SDS011;9823;50.936;4.046;2023-04-24T06:59:38;30.77;;;14.73;;
19374;SDS011;9823;50.936;4.046;2023-04-24T07:02:06;30.97;;;14.80;;
19374;SDS011;9823;50.936;4.046;2023-04-24T07:04:32;34.97;;;15.17;;
19374;SDS011;9823;50.936;4.046;2023-04-24T07:06:58;30.27;;;14.97;;
19374;SDS011;9823;50.936;4.046;2023-04-24T07:09:25;31.07;;;13.77;;
19374;SDS011;9823;50.936;4.046;2023-04-24T07:11:51;32.87;;;14.00;;
19374;SDS011;9823;50.936;4.046;2023-04-24T07:14:18;31.03;;;13.27;;
19374;SDS011;9823;50.936;4.046;2023-04-24T07:16:44;24.37;;;12.30;;
19374;SDS011;9823;50.936;4.046;2023-04-24T07:19:10;26.87;;;13.03;;
19374;SDS011;9823;50.936;4.046;2023-04-24T07:21:39;29.60;;;12.93;;
19374;SDS011;9823;50.936;4.046;2023-04-24T07:24:05;27.13;;;13.70;;
19374;SDS011;9823;50.936;4.046;2023-04-24T07:26:35;28.23;;;13.17;;
19374;SDS011;9823;50.936;4.046;2023-04-24T07:29:04;29.63;;;13.80;;
19374;SDS011;9823;50.936;4.046;2023-04-24T07:31:30;30.37;;;14.10;;
19374;SDS011;9823;50.936;4.046;2023-04-24T07:33:56;29.57;;;13.07;;
19374;SDS011;9823;50.936;4.046;2023-04-24T07:36:23;24.17;;;12.23;;
19374;SDS011;9823;50.936;4.046;2023-04-24T07:38:52;24.13;;;10.40;;
19374;SDS011;9823;50.936;4.046;2023-04-24T07:41:20;18.60;;;9.60;;
19374;SDS011;9823;50.936;4.046;2023-04-24T07:43:49;30.77;;;10.63;;
19374;SDS011;9823;50.936;4.046;2023-04-24T07:46:15;20.63;;;9.60;;
19374;SDS011;9823;50.936;4.046;2023-04-24T07:48:41;26.87;;;11.00;;
19374;SDS011;9823;50.936;4.046;2023-04-24T07:51:07;26.50;;;11.20;;
19374;SDS011;9823;50.936;4.046;2023-04-24T07:53:35;20.10;;;9.97;;
19374;SDS011;9823;50.936;4.046;2023-04-24T07:56:04;22.20;;;10.13;;
19374;SDS011;9823;50.936;4.046;2023-04-24T07:58:38;18.57;;;9.00;;
19374;SDS011;9823;50.936;4.046;2023-04-24T08:01:06;21.37;;;9.77;;
19374;SDS011;9823;50.936;4.046;2023-04-24T08:03:47;15.57;;;7.67;;
19374;SDS011;9823;50.936;4.046;2023-04-24T08:06:13;19.20;;;9.53;;
19374;SDS011;9823;50.936;4.046;2023-04-24T08:08:42;17.37;;;7.00;;
19374;SDS011;9823;50.936;4.046;2023-04-24T08:11:08;23.27;;;9.30;;
19374;SDS011;9823;50.936;4.046;2023-04-24T08:13:34;18.40;;;8.60;;
19374;SDS011;9823;50.936;4.046;2023-04-24T08:16:00;20.50;;;8.00;;
19374;SDS011;9823;50.936;4.046;2023-04-24T08:18:27;21.40;;;8.60;;
19374;SDS011;9823;50.936;4.046;2023-04-24T08:20:53;24.13;;;8.50;;
19374;SDS011;9823;50.936;4.046;2023-04-24T08:23:21;22.23;;;8.07;;
19374;SDS011;9823;50.936;4.046;2023-04-24T08:25:49;20.10;;;7.07;;
19374;SDS011;9823;50.936;4.046;2023-04-24T08:28:15;15.50;;;6.10;;
19374;SDS011;9823;50.936;4.046;2023-04-24T08:30:47;15.70;;;6.57;;
19374;SDS011;9823;50.936;4.046;2023-04-24T08:33:19;15.33;;;6.03;;
19374;SDS011;9823;50.936;4.046;2023-04-24T08:35:45;13.37;;;5.80;;
19374;SDS011;9823;50.936;4.046;2023-04-24T08:38:13;11.37;;;4.53;;
19374;SDS011;9823;50.936;4.046;2023-04-24T08:40:42;12.43;;;5.20;;
19374;SDS011;9823;50.936;4.046;2023-04-24T08:43:11;15.67;;;5.87;;
19374;SDS011;9823;50.936;4.046;2023-04-24T08:45:40;11.27;;;5.33;;
19374;SDS011;9823;50.936;4.046;2023-04-24T08:48:06;10.97;;;4.50;;
19374;SDS011;9823;50.936;4.046;2023-04-24T08:50:35;11.17;;;4.83;;
19374;SDS011;9823;50.936;4.046;2023-04-24T08:53:01;12.43;;;4.50;;
19374;SDS011;9823;50.936;4.046;2023-04-24T08:55:27;9.80;;;4.20;;
19374;SDS011;9823;50.936;4.046;2023-04-24T08:57:55;14.93;;;4.47;;
19374;SDS011;9823;50.936;4.046;2023-04-24T09:00:21;15.10;;;4.60;;
19374;SDS011;9823;50.936;4.046;2023-04-24T09:02:48;10.83;;;4.47;;
19374;SDS011;9823;50.936;4.046;2023-04-24T09:05:21;13.03;;;4.97;;
19374;SDS011;9823;50.936;4.046;2023-04-24T09:07:57;8.47;;;4.60;;
19374;SDS011;9823;50.936;4.046;2023-04-24T09:10:27;17.10;;;5.03;;
19374;SDS011;9823;50.936;4.046;2023-04-24T09:12:56;12.83;;;4.87;;
19374;SDS011;9823;50.936;4.046;2023-04-24T09:15:25;12.53;;;4.90;;
19374;SDS011;9823;50.936;4.046;2023-04-24T09:17:51;14.93;;;4.97;;
19374;SDS011;9823;50.936;4.046;2023-04-24T09:20:17;10.97;;;3.90;;
19374;SDS011;9823;50.936;4.046;2023-04-24T09:22:46;11.00;;;4.70;;
19374;SDS011;9823;50.936;4.046;2023-04-24T09:25:12;10.43;;;4.00;;
19374;SDS011;9823;50.936;4.046;2023-04-24T09:27:41;9.57;;;4.50;;
19374;SDS011;9823;50.936;4.046;2023-04-24T09:30:10;13.63;;;4.23;;
19374;SDS011;9823;50.936;4.046;2023-04-24T09:32:36;13.43;;;4.03;;
19374;SDS011;9823;50.936;4.046;2023-04-24T09:35:14;8.90;;;3.77;;
19374;SDS011;9823;50.936;4.046;2023-04-24T09:37:42;9.57;;;3.83;;
19374;SDS011;9823;50.936;4.046;2023-04-24T09:40:09;8.97;;;4.10;;
19374;SDS011;9823;50.936;4.046;2023-04-24T09:42:39;10.87;;;4.77;;
19374;SDS011;9823;50.936;4.046;2023-04-24T09:45:10;13.07;;;4.23;;
19374;SDS011;9823;50.936;4.046;2023-04-24T09:47:39;10.60;;;4.27;;
19374;SDS011;9823;50.936;4.046;2023-04-24T09:50:09;8.27;;;4.13;;
19374;SDS011;9823;50.936;4.046;2023-04-24T09:52:44;17.20;;;5.47;;
19374;SDS011;9823;50.936;4.046;2023-04-24T09:55:11;11.33;;;4.57;;
19374;SDS011;9823;50.936;4.046;2023-04-24T09:57:46;9.33;;;3.70;;
19374;SDS011;9823;50.936;4.046;2023-04-24T10:00:12;12.67;;;4.20;;
19374;SDS011;9823;50.936;4.046;2023-04-24T10:02:41;10.00;;;4.40;;
19374;SDS011;9823;50.936;4.046;2023-04-24T10:05:11;11.00;;;4.20;;
19374;SDS011;9823;50.936;4.046;2023-04-24T10:07:37;10.07;;;4.47;;
19374;SDS011;9823;50.936;4.046;2023-04-24T10:10:04;11.97;;;4.43;;
19374;SDS011;9823;50.936;4.046;2023-04-24T10:12:32;8.73;;;4.30;;
19374;SDS011;9823;50.936;4.046;2023-04-24T10:14:59;15.37;;;4.73;;
19374;SDS011;9823;50.936;4.046;2023-04-24T10:17:26;8.93;;;4.43;;
19374;SDS011;9823;50.936;4.046;2023-04-24T10:19:53;14.73;;;5.00;;
19374;SDS011;9823;50.936;4.046;2023-04-24T10:22:22;9.90;;;4.60;;
19374;SDS011;9823;50.936;4.046;2023-04-24T10:24:49;8.90;;;4.80;;
19374;SDS011;9823;50.936;4.046;2023-04-24T10:27:20;10.23;;;4.57;;
19374;SDS011;9823;50.936;4.046;2023-04-24T10:29:49;11.43;;;4.60;;
19374;SDS011;9823;50.936;4.046;2023-04-24T10:32:17;6.60;;;4.00;;
19374;SDS011;9823;50.936;4.046;2023-04-24T10:34:42;15.50;;;4.87;;
19374;SDS011;9823;50.936;4.046;2023-04-24T10:37:09;13.97;;;4.73;;
19374;SDS011;9823;50.936;4.046;2023-04-24T10:39:38;8.63;;;4.20;;
19374;SDS011;9823;50.936;4.046;2023-04-24T10:42:17;26.33;;;6.03;;
19374;SDS011;9823;50.936;4.046;2023-04-24T10:44:43;10.53;;;4.87;;
19374;SDS011;9823;50.936;4.046;2023-04-24T10:47:13;18.07;;;5.17;;
19374;SDS011;9823;50.936;4.046;2023-04-24T10:49:39;8.23;;;4.50;;
19374;SDS011;9823;50.936;4.046;2023-04-24T10:52:08;12.87;;;5.00;;
19374;SDS011;9823;50.936;4.046;2023-04-24T10:59:50;12.07;;;5.03;;
19374;SDS011;9823;50.936;4.046;2023-04-24T11:02:17;8.03;;;4.80;;
19374;SDS011;9823;50.936;4.046;2023-04-24T11:04:44;8.43;;;4.80;;
19374;SDS011;9823;50.936;4.046;2023-04-24T11:07:13;11.50;;;4.80;;
19374;SDS011;9823;50.936;4.046;2023-04-24T11:09:41;10.67;;;5.50;;
19374;SDS011;9823;50.936;4.046;2023-04-24T11:12:09;10.47;;;5.33;;
19374;SDS011;9823;50.936;4.046;2023-04-24T11:17:37;11.50;;;5.87;;
19374;SDS011;9823;50.936;4.046;2023-04-24T11:20:11;13.00;;;5.97;;
19374;SDS011;9823;50.936;4.046;2023-04-24T11:22:40;17.70;;;6.33;;
19374;SDS011;9823;50.936;4.046;2023-04-24T11:25:06;14.93;;;5.73;;
19374;SDS011;9823;50.936;4.046;2023-04-24T11:27:39;14.13;;;5.77;;
19374;SDS011;9823;50.936;4.046;2023-04-24T11:30:06;13.13;;;5.43;;
19374;SDS011;9823;50.936;4.046;2023-04-24T11:32:36;11.60;;;5.57;;
19374;SDS011;9823;50.936;4.046;2023-04-24T11:40:03;10.20;;;5.50;;
19374;SDS011;9823;50.936;4.046;2023-04-24T11:42:33;24.17;;;6.57;;
19374;SDS011;9823;50.936;4.046;2023-04-24T11:45:02;14.23;;;6.10;;
19374;SDS011;9823;50.936;4.046;2023-04-24T11:47:32;14.70;;;5.80;;
19374;SDS011;9823;50.936;4.046;2023-04-24T11:49:59;15.63;;;5.93;;
19374;SDS011;9823;50.936;4.046;2023-04-24T11:52:26;12.20;;;6.43;;
19374;SDS011;9823;50.936;4.046;2023-04-24T11:54:54;16.33;;;6.07;;
19374;SDS011;9823;50.936;4.046;2023-04-24T11:57:21;18.13;;;5.47;;
19374;SDS011;9823;50.936;4.046;2023-04-24T11:59:47;15.77;;;6.27;;
19374;SDS011;9823;50.936;4.046;2023-04-24T12:02:26;11.30;;;5.73;;
19374;SDS011;9823;50.936;4.046;2023-04-24T12:04:52;13.67;;;6.07;;
19374;SDS011;9823;50.936;4.046;2023-04-24T12:07:19;11.60;;;5.50;;
19374;SDS011;9823;50.936;4.046;2023-04-24T12:12:14;10.87;;;5.30;;
19374;SDS011;9823;50.936;4.046;2023-04-24T12:14:50;14.00;;;4.97;;
19374;SDS011;9823;50.936;4.046;2023-04-24T12:17:23;8.63;;;4.70;;
19374;SDS011;9823;50.936;4.046;2023-04-24T12:19:49;5.87;;;3.57;;
19374;SDS011;9823;50.936;4.046;2023-04-24T12:22:18;9.20;;;4.40;;
19374;SDS011;9823;50.936;4.046;2023-04-24T12:25:03;6.73;;;2.97;;
19374;SDS011;9823;50.936;4.046;2023-04-24T12:27:31;8.87;;;4.20;;
19374;SDS011;9823;50.936;4.046;2023-04-24T12:29:58;8.67;;;3.93;;
19374;SDS011;9823;50.936;4.046;2023-04-24T12:32:24;8.20;;;3.83;;
19374;SDS011;9823;50.936;4.046;2023-04-24T12:34:53;8.43;;;4.03;;
19374;SDS011;9823;50.936;4.046;2023-04-24T12:37:26;7.10;;;3.83;;
19374;SDS011;9823;50.936;4.046;2023-04-24T12:40:00;6.53;;;3.50;;
19374;SDS011;9823;50.936;4.046;2023-04-24T12:42:27;9.17;;;3.30;;
19374;SDS011;9823;50.936;4.046;2023-04-24T12:45:01;6.63;;;3.20;;
19374;SDS011;9823;50.936;4.046;2023-04-24T12:47:29;11.40;;;3.23;;
19374;SDS011;9823;50.936;4.046;2023-04-24T12:49:55;6.83;;;2.37;;
19374;SDS011;9823;50.936;4.046;2023-04-24T12:52:24;7.20;;;3.27;;
19374;SDS011;9823;50.936;4.046;2023-04-24T12:54:52;6.47;;;3.27;;
19374;SDS011;9823;50.936;4.046;2023-04-24T12:57:21;6.30;;;2.83;;
19374;SDS011;9823;50.936;4.046;2023-04-24T12:59:47;6.20;;;3.00;;
19374;SDS011;9823;50.936;4.046;2023-04-24T13:02:13;6.80;;;2.87;;
19374;SDS011;9823;50.936;4.046;2023-04-24T13:04:42;4.90;;;2.53;;
19374;SDS011;9823;50.936;4.046;2023-04-24T13:07:11;9.30;;;3.47;;
19374;SDS011;9823;50.936;4.046;2023-04-24T13:09:40;12.37;;;3.37;;
19374;SDS011;9823;50.936;4.046;2023-04-24T13:12:12;5.57;;;2.70;;
19374;SDS011;9823;50.936;4.046;2023-04-24T13:14:38;5.00;;;2.33;;
19374;SDS011;9823;50.936;4.046;2023-04-24T13:17:04;6.83;;;2.37;;
19374;SDS011;9823;50.936;4.046;2023-04-24T13:19:35;7.80;;;2.80;;
19374;SDS011;9823;50.936;4.046;2023-04-24T13:22:01;4.77;;;2.30;;
19374;SDS011;9823;50.936;4.046;2023-04-24T13:24:27;11.63;;;2.60;;
19374;SDS011;9823;50.936;4.046;2023-04-24T13:26:56;6.87;;;2.10;;
19374;SDS011;9823;50.936;4.046;2023-04-24T13:29:25;5.53;;;2.00;;
19374;SDS011;9823;50.936;4.046;2023-04-24T13:31:51;6.97;;;2.40;;
19374;SDS011;9823;50.936;4.046;2023-04-24T13:34:19;5.07;;;1.97;;
19374;SDS011;9823;50.936;4.046;2023-04-24T13:36:48;2.97;;;1.90;;
19374;SDS011;9823;50.936;4.046;2023-04-24T13:39:17;3.77;;;1.80;;
19374;SDS011;9823;50.936;4.046;2023-04-24T13:41:43;6.90;;;2.70;;
19374;SDS011;9823;50.936;4.046;2023-04-24T13:44:10;6.63;;;2.10;;
19374;SDS011;9823;50.936;4.046;2023-04-24T13:46:38;10.67;;;2.90;;
19374;SDS011;9823;50.936;4.046;2023-04-24T13:49:04;6.27;;;2.50;;
19374;SDS011;9823;50.936;4.046;2023-04-24T13:51:33;9.80;;;2.30;;
19374;SDS011;9823;50.936;4.046;2023-04-24T13:53:59;5.00;;;1.97;;
19374;SDS011;9823;50.936;4.046;2023-04-24T13:56:25;6.03;;;2.27;;
19374;SDS011;9823;50.936;4.046;2023-04-24T13:58:51;4.57;;;2.40;;
19374;SDS011;9823;50.936;4.046;2023-04-24T14:01:22;5.10;;;2.37;;
19374;SDS011;9823;50.936;4.046;2023-04-24T14:03:51;5.43;;;1.73;;
19374;SDS011;9823;50.936;4.046;2023-04-24T14:06:23;4.77;;;2.07;;
19374;SDS011;9823;50.936;4.046;2023-04-24T14:08:52;7.33;;;2.37;;
19374;SDS011;9823;50.936;4.046;2023-04-24T14:11:20;5.53;;;2.10;;
19374;SDS011;9823;50.936;4.046;2023-04-24T14:13:49;4.07;;;2.10;;
19374;SDS011;9823;50.936;4.046;2023-04-24T14:16:15;10.13;;;2.07;;
19374;SDS011;9823;50.936;4.046;2023-04-24T14:18:41;3.50;;;1.93;;
19374;SDS011;9823;50.936;4.046;2023-04-24T14:21:09;12.20;;;2.60;;
19374;SDS011;9823;50.936;4.046;2023-04-24T14:23:38;8.10;;;2.20;;
19374;SDS011;9823;50.936;4.046;2023-04-24T14:26:04;6.93;;;1.93;;
19374;SDS011;9823;50.936;4.046;2023-04-24T14:28:30;3.20;;;1.70;;
19374;SDS011;9823;50.936;4.046;2023-04-24T14:30:56;9.97;;;2.17;;
19374;SDS011;9823;50.936;4.046;2023-04-24T14:33:24;4.33;;;2.00;;
19374;SDS011;9823;50.936;4.046;2023-04-24T14:35:53;6.57;;;1.60;;
19374;SDS011;9823;50.936;4.046;2023-04-24T14:38:21;6.43;;;1.97;;
19374;SDS011;9823;50.936;4.046;2023-04-24T14:40:47;10.63;;;4.30;;
19374;SDS011;9823;50.936;4.046;2023-04-24T14:43:13;8.50;;;3.10;;
19374;SDS011;9823;50.936;4.046;2023-04-24T14:45:42;7.40;;;2.43;;
19374;SDS011;9823;50.936;4.046;2023-04-24T14:48:08;3.70;;;1.90;;
19374;SDS011;9823;50.936;4.046;2023-04-24T14:50:34;5.77;;;2.33;;
19374;SDS011;9823;50.936;4.046;2023-04-24T14:53:00;7.20;;;2.30;;
19374;SDS011;9823;50.936;4.046;2023-04-24T14:55:31;11.87;;;2.30;;
19374;SDS011;9823;50.936;4.046;2023-04-24T14:57:58;7.73;;;2.00;;
19374;SDS011;9823;50.936;4.046;2023-04-24T15:00:27;5.67;;;2.57;;
19374;SDS011;9823;50.936;4.046;2023-04-24T15:02:53;7.20;;;2.27;;
19374;SDS011;9823;50.936;4.046;2023-04-24T15:05:25;5.50;;;1.53;;